createdAt,value
2019-01-08T00:01:42.253Z,2.17
2019-01-08T00:04:10.947Z,1.32
2019-01-08T00:06:39.337Z,1.60
2019-01-08T00:09:07.981Z,1.50
2019-01-08T00:11:36.705Z,1.40
2019-01-08T00:14:05.357Z,1.30
2019-01-08T00:16:33.769Z,1.15
2019-01-08T00:19:02.197Z,1.22
2019-01-08T00:21:30.640Z,1.17
2019-01-08T00:23:59.277Z,1.32
2019-01-08T00:26:27.676Z,1.52
2019-01-08T00:28:56.121Z,1.05
2019-01-08T00:31:24.532Z,1.30
2019-01-08T00:33:53.007Z,1.27
2019-01-08T00:36:21.654Z,1.25
2019-01-08T00:38:50.057Z,0.95
2019-01-08T00:41:18.727Z,1.00
2019-01-08T00:43:47.131Z,1.70
2019-01-08T00:46:15.573Z,1.10
2019-01-08T00:48:44.004Z,1.10
2019-01-08T00:51:12.423Z,1.00
2019-01-08T00:53:41.142Z,1.10
2019-01-08T00:56:09.571Z,0.95
2019-01-08T00:58:37.989Z,0.90
2019-01-08T01:01:06.405Z,1.00
2019-01-08T01:03:34.817Z,0.93
2019-01-08T01:06:03.234Z,1.00
2019-01-08T01:08:31.891Z,0.75
2019-01-08T01:11:00.279Z,1.12
2019-01-08T01:13:28.743Z,1.00
2019-01-08T01:15:57.149Z,2.05
2019-01-08T01:18:25.562Z,1.70
2019-01-08T01:20:54.232Z,1.85
2019-01-08T01:23:22.633Z,3.35
2019-01-08T01:25:51.088Z,3.60
2019-01-08T01:28:19.561Z,3.10
2019-01-08T01:30:47.983Z,7.47
2019-01-08T01:33:16.387Z,6.60
2019-01-08T01:35:44.802Z,5.55
2019-01-08T01:38:13.246Z,5.78
2019-01-08T01:40:41.646Z,6.05
2019-01-08T01:43:10.074Z,6.37
2019-01-08T01:45:38.516Z,7.40
2019-01-08T01:48:06.911Z,7.45
2019-01-08T01:50:35.315Z,8.25
2019-01-08T01:53:03.721Z,6.45
2019-01-08T01:55:32.163Z,4.45
2019-01-08T01:58:11.629Z,3.90
2019-01-08T02:00:40.321Z,4.28
2019-01-08T02:03:08.728Z,4.22
2019-01-08T02:05:37.632Z,3.52
2019-01-08T05:09:15.295Z,7.47
2019-01-08T05:11:43.694Z,5.00
2019-01-08T05:14:12.122Z,4.05
2019-01-08T05:16:40.593Z,4.87
2019-01-08T05:19:08.989Z,4.65
2019-01-08T05:21:37.380Z,5.12
2019-01-08T05:24:05.779Z,4.45
2019-01-08T05:26:34.185Z,5.30
2019-01-08T05:29:02.574Z,4.40
2019-01-08T05:31:30.989Z,3.83
2019-01-08T05:33:59.390Z,3.87
2019-01-08T05:36:27.838Z,4.87
2019-01-08T05:38:56.476Z,4.53
2019-01-08T05:41:24.856Z,2.90
2019-01-08T05:43:53.490Z,4.53
2019-01-08T05:46:21.876Z,3.27
2019-01-08T05:48:50.289Z,4.42
2019-01-08T05:51:18.681Z,4.70
2019-01-08T05:53:47.092Z,4.22
2019-01-08T05:56:15.728Z,5.05
2019-01-08T05:58:44.371Z,5.03
2019-01-08T06:01:12.997Z,6.15
2019-01-08T06:03:41.406Z,4.20
2019-01-08T06:06:09.802Z,3.70
2019-01-08T06:08:38.474Z,4.12
2019-01-08T06:11:06.871Z,5.50
2019-01-08T06:13:35.507Z,4.28
2019-01-08T06:16:03.906Z,4.60
2019-01-08T06:18:32.545Z,5.15
2019-01-08T06:21:01.178Z,3.80
2019-01-08T06:23:29.805Z,4.40
2019-01-08T06:25:58.197Z,5.00
2019-01-08T06:28:26.599Z,4.17
2019-01-08T06:30:54.998Z,4.78
2019-01-08T06:33:23.649Z,3.95
2019-01-08T06:35:52.061Z,4.95
2019-01-08T06:38:20.453Z,4.90
2019-01-08T06:40:57.335Z,4.05
2019-01-08T06:43:18.998Z,4.40
2019-01-08T06:45:47.412Z,4.42
2019-01-08T06:48:15.813Z,4.55
2019-01-08T06:50:44.204Z,4.47
2019-01-08T06:53:12.643Z,4.33
2019-01-08T06:55:41.041Z,3.72
2019-01-08T06:58:09.443Z,4.08
2019-01-08T07:00:37.862Z,3.98
2019-01-08T07:03:06.238Z,3.95
2019-01-08T07:05:34.644Z,4.95
2019-01-08T07:08:03.252Z,4.62
2019-01-08T07:10:31.669Z,4.00
2019-01-08T07:13:00.073Z,4.17
2019-01-08T07:15:28.477Z,3.90
2019-01-08T07:17:57.103Z,3.75
2019-01-08T07:20:25.504Z,3.65
2019-01-08T07:22:53.907Z,3.00
2019-01-08T07:25:22.303Z,3.52
2019-01-08T07:27:50.694Z,3.95
2019-01-08T07:30:19.090Z,3.50
2019-01-08T07:32:47.735Z,4.35
2019-01-08T07:35:16.124Z,4.22
2019-01-08T07:37:44.519Z,2.83
2019-01-08T07:40:12.918Z,5.17
2019-01-08T07:42:41.307Z,3.95
2019-01-08T07:45:09.717Z,3.30
2019-01-08T07:47:38.098Z,4.60
2019-01-08T07:50:08.840Z,3.00
2019-01-08T07:52:37.234Z,3.30
2019-01-08T07:55:05.771Z,4.83
2019-01-08T07:57:34.397Z,3.92
2019-01-08T08:00:02.871Z,5.90
2019-01-08T08:02:31.262Z,4.03
2019-01-08T08:04:59.656Z,3.22
2019-01-08T08:07:28.112Z,4.08
2019-01-08T08:09:56.510Z,4.20
2019-01-08T08:12:24.903Z,4.55
2019-01-08T08:14:53.559Z,7.78
2019-01-08T08:17:21.948Z,4.00
2019-01-08T08:19:50.590Z,4.30
2019-01-08T08:22:18.988Z,5.12
2019-01-08T08:24:47.376Z,5.45
2019-01-08T08:27:15.777Z,5.20
2019-01-08T08:29:44.178Z,3.70
2019-01-08T08:32:12.606Z,3.98
2019-01-08T08:34:41.066Z,3.47
2019-01-08T08:37:09.700Z,5.37
2019-01-08T08:39:38.087Z,4.42
2019-01-08T08:42:06.488Z,5.10
2019-01-08T08:44:34.886Z,4.55
2019-01-08T08:47:03.534Z,6.25
2019-01-08T08:49:31.924Z,4.35
2019-01-08T08:52:00.325Z,4.30
2019-01-08T08:54:28.718Z,3.92
2019-01-08T08:56:57.118Z,3.58
2019-01-08T08:59:25.518Z,4.28
2019-01-08T09:01:53.953Z,3.85
2019-01-08T09:04:22.595Z,3.52
2019-01-08T09:06:51.004Z,4.75
2019-01-08T09:09:19.446Z,4.65
2019-01-08T09:11:47.855Z,4.22
2019-01-08T09:14:16.245Z,3.75
2019-01-08T09:16:44.639Z,2.65
2019-01-08T09:19:13.034Z,2.92
2019-01-08T09:21:41.488Z,3.72
2019-01-08T09:24:10.127Z,2.85
2019-01-08T09:26:38.539Z,3.30
2019-01-08T09:29:07.158Z,3.25
2019-01-08T09:31:35.555Z,4.85
2019-01-08T09:34:05.002Z,4.35
2019-01-08T09:36:33.428Z,4.10
2019-01-08T09:39:01.806Z,3.50
2019-01-08T09:41:30.223Z,3.75
2019-01-08T09:43:58.614Z,4.08
2019-01-08T09:46:27.239Z,3.65
2019-01-08T09:48:55.629Z,4.47
2019-01-08T09:51:24.020Z,3.70
2019-01-08T09:53:52.421Z,3.65
2019-01-08T09:56:20.816Z,4.28
2019-01-08T09:58:49.215Z,3.22
2019-01-08T10:01:23.718Z,3.08
2019-01-08T10:03:47.985Z,2.65
2019-01-08T10:06:16.617Z,3.90
2019-01-08T10:08:45.014Z,3.65
2019-01-08T10:11:13.410Z,4.28
2019-01-08T10:13:41.810Z,3.22
2019-01-08T10:16:10.209Z,3.22
2019-01-08T10:18:38.605Z,3.08
2019-01-08T10:21:07.055Z,2.40
2019-01-08T10:23:35.472Z,2.45
2019-01-08T10:26:03.859Z,3.55
2019-01-08T10:28:32.561Z,3.45
2019-01-08T10:31:00.977Z,4.55
2019-01-08T10:33:29.381Z,4.25
2019-01-08T10:35:57.915Z,4.40
2019-01-08T10:38:26.563Z,4.65
2019-01-08T10:40:55.200Z,4.70
2019-01-08T10:43:23.823Z,4.83
2019-01-08T10:45:52.242Z,5.08
2019-01-08T10:48:20.646Z,4.75
2019-01-08T10:50:49.291Z,5.62
2019-01-08T10:53:17.744Z,5.25
2019-01-08T10:55:46.135Z,4.78
2019-01-08T10:58:14.526Z,6.15
2019-01-08T11:00:43.169Z,4.72
2019-01-08T11:03:11.567Z,5.03
2019-01-08T11:05:39.958Z,5.62
2019-01-08T11:08:08.345Z,5.90
2019-01-08T11:10:36.746Z,6.35
2019-01-08T11:13:05.141Z,5.47
2019-01-08T11:15:33.808Z,6.08
2019-01-08T11:18:02.455Z,5.97
2019-01-08T11:20:30.857Z,5.70
2019-01-08T11:22:59.253Z,4.15
2019-01-08T11:25:27.645Z,4.45
2019-01-08T11:27:56.052Z,3.72
2019-01-08T11:30:24.695Z,4.12
2019-01-08T11:32:54.821Z,4.03
2019-01-08T11:35:23.599Z,4.85
2019-01-08T11:37:51.993Z,4.87
2019-01-08T11:40:20.397Z,3.90
2019-01-08T11:42:48.794Z,3.20
2019-01-08T11:45:17.191Z,4.30
2019-01-08T11:47:45.594Z,3.77
2019-01-08T11:50:13.998Z,4.25
2019-01-08T11:52:42.566Z,4.40
2019-01-08T11:55:10.955Z,3.70
2019-01-08T11:57:39.350Z,3.70
2019-01-08T12:00:11.183Z,4.10
2019-01-08T12:02:47.610Z,2.70
2019-01-08T12:05:10.442Z,3.20
2019-01-08T12:07:38.862Z,4.22
2019-01-08T12:10:07.730Z,4.22
2019-01-08T12:12:36.117Z,4.62
2019-01-08T12:15:05.654Z,3.60
2019-01-08T12:17:34.053Z,4.28
2019-01-08T12:20:02.781Z,4.25
2019-01-08T12:22:31.432Z,4.65
2019-01-08T12:25:00.262Z,4.87
2019-01-08T12:27:28.632Z,4.95
2019-01-08T12:29:57.035Z,4.42
2019-01-08T12:32:25.457Z,4.92
2019-01-08T12:34:53.836Z,3.47
2019-01-08T12:37:22.238Z,4.12
2019-01-08T12:39:50.641Z,4.87
2019-01-08T12:42:19.051Z,6.08
2019-01-08T12:44:47.443Z,4.53
2019-01-08T12:47:15.843Z,5.28
2019-01-08T12:49:44.482Z,4.55
2019-01-08T12:52:12.897Z,4.62
2019-01-08T12:54:41.290Z,4.75
2019-01-08T12:57:09.682Z,2.65
2019-01-08T12:59:39.014Z,3.15
2019-01-08T13:02:14.615Z,1.72
2019-01-08T13:04:37.526Z,1.25
2019-01-08T13:07:05.934Z,2.02
2019-01-08T13:09:37.338Z,2.15
2019-01-08T13:12:05.755Z,3.25
2019-01-08T13:14:34.142Z,3.30
2019-01-08T13:17:11.213Z,2.60
2019-01-08T13:19:32.657Z,3.17
2019-01-08T13:22:01.052Z,2.20
2019-01-08T13:24:29.436Z,2.67
2019-01-08T13:26:57.821Z,2.37
2019-01-08T13:29:26.249Z,2.58
2019-01-08T13:31:55.556Z,3.30
2019-01-08T13:34:23.950Z,3.47
2019-01-08T13:36:52.345Z,3.85
2019-01-08T13:39:20.738Z,2.85
2019-01-08T13:41:49.128Z,4.78
2019-01-08T13:44:17.534Z,2.35
2019-01-08T13:46:45.929Z,3.50
2019-01-08T13:49:14.332Z,4.33
2019-01-08T13:51:42.725Z,4.45
2019-01-08T13:54:11.206Z,4.55
2019-01-08T13:56:39.849Z,5.50
2019-01-08T13:59:08.571Z,3.95
2019-01-08T14:01:36.978Z,4.80
2019-01-08T14:04:05.770Z,3.80
2019-01-08T14:06:34.181Z,3.85
2019-01-08T14:09:02.565Z,3.00
2019-01-08T14:11:31.107Z,4.65
2019-01-08T14:13:59.501Z,3.67
2019-01-08T14:16:27.908Z,3.95
2019-01-08T14:18:56.538Z,4.00
2019-01-08T14:21:24.931Z,4.62
2019-01-08T14:23:53.330Z,4.62
2019-01-08T14:26:21.726Z,4.25
2019-01-08T14:28:50.394Z,4.45
2019-01-08T14:31:19.034Z,3.90
2019-01-08T14:33:47.433Z,3.40
2019-01-08T14:36:15.833Z,3.22
2019-01-08T14:38:44.238Z,3.37
2019-01-08T14:41:12.635Z,2.80
2019-01-08T14:43:41.010Z,2.65
2019-01-08T14:46:09.405Z,3.40
2019-01-08T14:48:38.046Z,2.02
2019-01-08T14:51:06.456Z,2.60
2019-01-08T14:53:34.841Z,2.60
2019-01-08T14:56:03.228Z,2.80
2019-01-08T14:58:31.618Z,4.08
2019-01-08T15:01:00.022Z,4.12
2019-01-08T15:03:31.750Z,4.87
2019-01-08T15:06:00.150Z,3.60
2019-01-08T15:08:28.563Z,3.05
2019-01-08T15:10:57.220Z,3.58
2019-01-08T15:13:25.614Z,3.65
2019-01-08T15:15:54.011Z,2.95
2019-01-08T15:18:22.397Z,3.27
2019-01-08T15:20:51.050Z,3.40
2019-01-08T15:23:19.478Z,2.50
2019-01-08T15:25:47.882Z,3.37
2019-01-08T15:28:16.278Z,3.45
2019-01-08T15:30:44.686Z,3.40
2019-01-08T15:33:13.076Z,3.15
2019-01-08T15:35:41.471Z,1.60
2019-01-08T15:38:09.949Z,2.70
2019-01-08T15:40:38.574Z,2.52
2019-01-08T15:43:06.972Z,1.90
2019-01-08T15:45:35.720Z,2.90
2019-01-08T15:48:05.272Z,2.95
2019-01-08T15:50:33.842Z,2.35
2019-01-08T15:53:02.246Z,2.30
2019-01-08T15:55:30.643Z,2.40
2019-01-08T15:57:59.056Z,2.42
2019-01-08T16:00:27.442Z,2.00
2019-01-08T16:02:55.852Z,1.95
2019-01-08T16:05:24.230Z,2.47
2019-01-08T16:07:52.643Z,3.15
2019-01-08T16:10:21.030Z,3.05
2019-01-08T16:12:49.433Z,2.72
2019-01-08T16:15:17.828Z,2.40
2019-01-08T16:17:46.225Z,3.27
2019-01-08T16:20:14.633Z,3.22
2019-01-08T16:22:43.710Z,2.60
2019-01-08T16:25:12.101Z,3.17
2019-01-08T16:27:40.501Z,4.60
2019-01-08T16:30:09.370Z,3.62
2019-01-08T16:32:37.777Z,3.65
2019-01-08T16:35:06.402Z,3.20
2019-01-08T16:37:34.813Z,2.72
2019-01-08T16:40:03.817Z,3.67
2019-01-08T16:42:32.215Z,3.27
2019-01-08T16:45:00.613Z,3.08
2019-01-08T16:47:29.046Z,4.47
2019-01-08T16:49:57.437Z,2.87
2019-01-08T16:52:25.842Z,3.72
2019-01-08T16:54:54.234Z,4.37
2019-01-08T16:57:22.881Z,4.20
2019-01-08T16:59:51.512Z,3.65
2019-01-08T17:02:19.915Z,3.72
2019-01-08T17:04:48.315Z,2.70
2019-01-08T17:07:16.739Z,3.75
2019-01-08T17:09:45.134Z,3.25
2019-01-08T17:12:13.528Z,2.87
2019-01-08T17:14:41.936Z,3.15
2019-01-08T17:17:10.694Z,3.50
2019-01-08T17:19:39.086Z,3.67
2019-01-08T17:22:07.743Z,3.45
2019-01-08T17:24:36.138Z,4.62
2019-01-08T17:27:04.838Z,3.50
2019-01-08T17:29:33.261Z,2.55
2019-01-08T17:32:01.647Z,2.85
2019-01-08T17:34:30.050Z,2.92
2019-01-08T17:36:58.441Z,4.85
2019-01-08T17:39:26.852Z,2.33
2019-01-08T17:41:55.248Z,2.87
2019-01-08T17:44:23.660Z,3.50
2019-01-08T17:46:52.051Z,2.80
2019-01-08T17:49:20.465Z,3.45
2019-01-08T17:51:49.102Z,2.65
2019-01-08T17:54:17.548Z,3.70
2019-01-08T17:56:45.976Z,4.70
2019-01-08T17:59:14.384Z,3.45
2019-01-08T18:01:46.471Z,4.47
2019-01-08T18:04:14.872Z,3.20
2019-01-08T18:06:52.489Z,4.50
2019-01-08T18:09:21.278Z,3.85
2019-01-08T18:11:49.683Z,4.55
2019-01-08T18:14:18.550Z,3.77
2019-01-08T18:16:46.945Z,3.15
2019-01-08T18:19:15.343Z,2.83
2019-01-08T18:21:43.770Z,4.80
2019-01-08T18:24:12.146Z,3.50
2019-01-08T18:26:40.938Z,4.67
2019-01-08T18:29:09.353Z,2.95
2019-01-08T18:31:38.008Z,3.00
2019-01-08T18:34:06.402Z,4.12
2019-01-08T18:36:34.814Z,3.52
2019-01-08T18:39:04.778Z,3.20
2019-01-08T18:41:33.174Z,2.80
2019-01-08T18:44:01.837Z,3.72
2019-01-08T18:46:30.254Z,4.37
2019-01-08T18:48:59.002Z,4.60
2019-01-08T18:51:27.412Z,5.10
2019-01-08T18:53:55.802Z,4.12
2019-01-08T18:56:24.209Z,3.85
2019-01-08T18:58:52.599Z,2.55
2019-01-08T19:01:20.996Z,1.60
2019-01-08T19:03:49.386Z,1.95
2019-01-08T19:06:17.780Z,2.10
2019-01-08T19:09:23.734Z,2.58
2019-01-08T19:11:52.298Z,2.50
2019-01-08T19:14:23.676Z,3.20
2019-01-08T19:16:52.082Z,2.72
2019-01-08T19:19:20.744Z,2.80
2019-01-08T19:21:50.718Z,3.40
2019-01-08T19:24:19.312Z,3.33
2019-01-08T19:26:47.989Z,3.00
2019-01-08T19:29:16.377Z,5.10
2019-01-08T19:31:44.775Z,4.37
2019-01-08T19:34:13.181Z,3.75
2019-01-08T19:36:41.585Z,3.75
2019-01-08T19:39:09.974Z,4.28
2019-01-08T19:41:38.677Z,3.42
2019-01-08T19:44:07.076Z,3.77
2019-01-08T19:46:35.474Z,3.30
2019-01-08T19:49:03.969Z,2.40
2019-01-08T19:51:32.366Z,4.00
2019-01-08T19:54:00.762Z,2.80
2019-01-08T19:56:29.160Z,3.05
2019-01-08T19:58:57.550Z,3.20
2019-01-08T20:01:25.950Z,2.92
2019-01-08T20:03:54.351Z,4.10
2019-01-08T20:06:22.983Z,3.85
2019-01-08T20:08:51.375Z,3.80
2019-01-08T20:11:19.770Z,4.78
2019-01-08T20:13:48.162Z,4.15
2019-01-08T20:16:16.580Z,3.70
2019-01-08T20:18:45.318Z,3.02
2019-01-08T20:21:13.946Z,3.15
2019-01-08T20:23:43.042Z,3.62
2019-01-08T20:26:11.438Z,3.67
2019-01-08T20:28:40.099Z,2.55
2019-01-08T20:31:08.506Z,2.85
2019-01-08T20:33:37.169Z,3.85
2019-01-08T20:36:05.558Z,2.33
2019-01-08T20:38:34.230Z,2.40
2019-01-08T20:41:02.697Z,2.87
2019-01-08T20:43:31.346Z,2.95
2019-01-08T20:45:59.733Z,2.72
2019-01-08T20:48:28.129Z,2.67
2019-01-08T20:50:56.573Z,2.35
2019-01-08T20:53:27.917Z,2.20
2019-01-08T20:55:56.317Z,1.90
2019-01-08T20:58:28.574Z,2.50
2019-01-08T21:00:55.168Z,3.22
2019-01-08T21:03:23.897Z,3.50
2019-01-08T21:05:52.537Z,3.20
2019-01-08T21:08:20.935Z,3.67
2019-01-08T21:10:51.642Z,5.45
2019-01-08T21:13:20.303Z,3.95
2019-01-08T21:15:48.694Z,5.00
2019-01-08T21:18:17.122Z,5.65
2019-01-08T21:20:45.755Z,4.25
2019-01-08T21:23:14.140Z,4.20
2019-01-08T21:25:42.798Z,3.45
2019-01-08T21:28:11.190Z,4.62
2019-01-08T21:30:39.897Z,4.30
2019-01-08T21:33:08.599Z,3.75
2019-01-08T21:35:37.000Z,4.30
2019-01-08T21:38:05.647Z,4.00
2019-01-08T21:40:34.058Z,3.92
2019-01-08T21:43:02.457Z,3.77
2019-01-08T21:45:31.494Z,3.95
2019-01-08T21:48:00.192Z,3.80
2019-01-08T21:50:28.966Z,4.47
2019-01-08T21:52:57.381Z,3.90
2019-01-08T21:55:25.803Z,4.40
2019-01-08T21:57:54.242Z,4.28
2019-01-08T22:00:22.643Z,4.70
2019-01-08T22:02:51.033Z,5.12
2019-01-08T22:05:19.442Z,2.92
2019-01-08T22:07:47.896Z,4.33
2019-01-08T22:10:16.297Z,3.98
2019-01-08T22:12:44.702Z,3.55
2019-01-08T22:15:13.098Z,3.52
2019-01-08T22:17:41.490Z,4.55
2019-01-08T22:20:10.676Z,3.37
2019-01-08T22:22:39.073Z,5.65
2019-01-08T22:25:07.803Z,4.72
2019-01-08T22:27:36.686Z,4.20
2019-01-08T22:30:07.011Z,3.15
2019-01-08T22:32:35.646Z,6.10
2019-01-08T22:35:04.313Z,6.17
2019-01-08T22:37:33.027Z,5.47
2019-01-08T22:40:01.677Z,5.87
2019-01-08T22:42:30.338Z,6.22
2019-01-08T22:44:58.726Z,5.75
2019-01-08T22:47:27.131Z,6.03
2019-01-08T22:49:55.525Z,5.95
2019-01-08T22:52:23.939Z,5.40
2019-01-08T22:54:52.551Z,5.87
2019-01-08T22:57:21.766Z,5.62
2019-01-08T22:59:50.942Z,4.85
2019-01-08T23:02:19.335Z,3.98
2019-01-08T23:04:47.866Z,4.65
2019-01-08T23:07:16.271Z,3.37
2019-01-08T23:09:44.953Z,5.70
2019-01-08T23:12:13.644Z,3.27
2019-01-08T23:14:42.030Z,4.28
2019-01-08T23:17:10.705Z,4.10
2019-01-08T23:19:39.385Z,3.00
2019-01-08T23:22:07.788Z,3.50
2019-01-08T23:24:36.179Z,2.90
2019-01-08T23:27:04.926Z,3.15
2019-01-08T23:29:33.325Z,3.45
2019-01-08T23:32:01.994Z,3.95
2019-01-08T23:34:30.680Z,4.65
2019-01-08T23:36:59.069Z,5.37
2019-01-08T23:39:27.482Z,5.30
2019-01-08T23:41:56.222Z,6.20
2019-01-08T23:44:24.604Z,5.55
2019-01-08T23:46:53.010Z,5.47
2019-01-08T23:49:21.671Z,4.60
2019-01-08T23:51:53.166Z,5.28
2019-01-08T23:54:22.201Z,5.17
2019-01-08T23:56:51.238Z,4.00
2019-01-08T23:59:19.638Z,3.98
